Time;durP1;ratioP1;P1;durP2;ratioP2;P2;SDS_P1;SDS_P2;PMS_P1;PMS_P2;Temp;Humidity;BMP_temperature;BMP_pressure;BME280_temperature;BME280_humidity;BME280_pressure;Samples;Min_cycle;Max_cycle;Signal;HPM_P1;HPM_P2
2023/06/19 00:01:36;;;;;;;5.53;4.80;;;;;;;;;;5035117;28;21062;-59
2023/06/19 00:04:02;;;;;;;4.10;4.00;;;;;;;;;;5035698;28;20423;-59
2023/06/19 00:06:28;;;;;;;4.00;3.70;;;;;;;;;;5035391;28;20420;-59
2023/06/19 00:08:54;;;;;;;9.93;3.90;;;;;;;;;;5035631;28;20426;-59
2023/06/19 00:11:20;;;;;;;4.33;4.03;;;;;;;;;;5035770;28;20494;-58
2023/06/19 00:13:46;;;;;;;4.33;3.90;;;;;;;;;;5035663;28;20421;-59
2023/06/19 00:16:15;;;;;;;4.53;4.23;;;;;;;;;;5035716;28;20914;-59
2023/06/19 00:18:41;;;;;;;4.20;4.00;;;;;;;;;;5034316;28;20478;-58
2023/06/19 00:21:07;;;;;;;4.40;4.20;;;;;;;;;;5035825;28;20407;-58
2023/06/19 00:23:34;;;;;;;7.17;4.33;;;;;;;;;;5035535;28;20506;-59
2023/06/19 00:26:03;;;;;;;5.17;4.90;;;;;;;;;;5035252;28;20430;-58
2023/06/19 00:28:29;;;;;;;4.57;4.43;;;;;;;;;;5035293;28;20440;-58
2023/06/19 00:30:55;;;;;;;5.27;4.60;;;;;;;;;;5035269;28;20473;-59
2023/06/19 00:33:21;;;;;;;5.17;4.47;;;;;;;;;;5035096;28;20439;-58
2023/06/19 00:35:50;;;;;;;6.70;4.30;;;;;;;;;;5035316;28;20409;-59
2023/06/19 00:38:18;;;;;;;4.43;4.27;;;;;;;;;;5034050;28;20476;-59
2023/06/19 00:40:44;;;;;;;3.73;3.53;;;;;;;;;;5035457;28;20419;-57
2023/06/19 00:43:10;;;;;;;3.87;3.77;;;;;;;;;;5035143;28;20769;-57
2023/06/19 00:45:36;;;;;;;5.00;4.63;;;;;;;;;;5035213;28;20422;-58
2023/06/19 00:48:02;;;;;;;10.30;4.70;;;;;;;;;;5034912;28;20819;-62
2023/06/19 00:50:30;;;;;;;4.63;4.53;;;;;;;;;;5035128;28;20435;-62
2023/06/19 00:52:56;;;;;;;8.20;5.40;;;;;;;;;;5035026;28;20444;-62
2023/06/19 00:55:26;;;;;;;4.90;4.70;;;;;;;;;;5034955;28;20413;-62
2023/06/19 00:57:53;;;;;;;5.97;5.27;;;;;;;;;;5034658;28;20443;-62
2023/06/19 01:00:19;;;;;;;4.97;4.60;;;;;;;;;;5033779;28;20894;-62
2023/06/19 01:02:44;;;;;;;6.27;5.90;;;;;;;;;;5034629;28;20928;-62
2023/06/19 01:05:10;;;;;;;6.33;5.50;;;;;;;;;;5034625;28;20501;-62
2023/06/19 01:07:45;;;;;;;4.90;4.47;;;;;;;;;;5034451;28;20435;-62
2023/06/19 01:10:15;;;;;;;18.33;6.50;;;;;;;;;;5033495;28;20489;-62
2023/06/19 01:12:50;;;;;;;17.77;7.37;;;;;;;;;;5034591;28;20453;-63
2023/06/19 01:15:16;;;;;;;14.93;7.93;;;;;;;;;;5034787;28;20421;-63
2023/06/19 01:17:47;;;;;;;15.10;6.90;;;;;;;;;;5034461;28;20446;-63
2023/06/19 01:20:14;;;;;;;13.23;7.67;;;;;;;;;;5034702;28;20471;-60
2023/06/19 01:22:43;;;;;;;9.10;6.60;;;;;;;;;;5034332;28;20439;-60
2023/06/19 01:25:09;;;;;;;9.70;6.20;;;;;;;;;;5034361;28;20445;-60
2023/06/19 01:27:35;;;;;;;11.60;6.43;;;;;;;;;;5034098;28;20581;-60
2023/06/19 01:30:05;;;;;;;13.53;6.80;;;;;;;;;;5034292;28;20485;-60
2023/06/19 01:32:31;;;;;;;12.73;5.90;;;;;;;;;;5034452;28;20440;-61
2023/06/19 01:34:58;;;;;;;13.00;6.03;;;;;;;;;;5034035;28;20410;-60
2023/06/19 01:37:28;;;;;;;14.30;8.07;;;;;;;;;;5034125;28;20450;-62
2023/06/19 01:40:00;;;;;;;12.37;7.70;;;;;;;;;;5033759;28;20477;-61
2023/06/19 01:42:27;;;;;;;16.70;7.77;;;;;;;;;;5034057;28;20437;-61
2023/06/19 01:44:53;;;;;;;13.73;6.90;;;;;;;;;;5032744;28;20420;-61
2023/06/19 01:47:21;;;;;;;16.23;6.70;;;;;;;;;;5033917;28;20429;-61
2023/06/19 01:49:48;;;;;;;11.83;6.80;;;;;;;;;;5033908;28;20803;-61
2023/06/19 01:52:14;;;;;;;14.60;6.90;;;;;;;;;;5033786;28;20417;-61
2023/06/19 01:54:40;;;;;;;13.60;7.43;;;;;;;;;;5033757;28;20997;-61
2023/06/19 01:57:06;;;;;;;10.40;7.20;;;;;;;;;;5033630;28;20782;-61
2023/06/19 01:59:32;;;;;;;8.30;7.20;;;;;;;;;;5033594;28;20518;-61
2023/06/19 02:01:58;;;;;;;8.00;7.30;;;;;;;;;;5033376;28;20471;-61
2023/06/19 02:04:26;;;;;;;7.50;6.80;;;;;;;;;;5033475;28;20456;-61
2023/06/19 02:06:52;;;;;;;8.97;7.80;;;;;;;;;;5033613;28;20495;-61
2023/06/19 02:09:18;;;;;;;8.40;7.43;;;;;;;;;;5033778;28;20496;-61
2023/06/19 02:11:44;;;;;;;10.87;7.63;;;;;;;;;;5033346;28;20409;-61
2023/06/19 02:14:11;;;;;;;10.13;7.30;;;;;;;;;;5033452;28;20459;-61
2023/06/19 02:16:37;;;;;;;9.90;7.70;;;;;;;;;;5033681;28;20525;-61
2023/06/19 02:19:05;;;;;;;12.20;7.93;;;;;;;;;;5033184;28;20493;-61
2023/06/19 02:21:31;;;;;;;11.80;7.70;;;;;;;;;;5033218;28;20466;-60
2023/06/19 02:23:57;;;;;;;8.53;7.10;;;;;;;;;;5033141;28;20878;-61
2023/06/19 02:26:28;;;;;;;13.23;7.50;;;;;;;;;;5033189;28;20423;-60
2023/06/19 02:28:54;;;;;;;16.50;8.47;;;;;;;;;;5033034;28;20440;-61
2023/06/19 02:31:21;;;;;;;7.57;6.87;;;;;;;;;;5033096;28;20444;-61
2023/06/19 02:33:47;;;;;;;9.70;7.80;;;;;;;;;;5032914;28;20454;-61
2023/06/19 02:36:13;;;;;;;25.30;6.93;;;;;;;;;;5033055;28;20884;-61
2023/06/19 02:38:41;;;;;;;9.43;7.17;;;;;;;;;;5032853;28;20472;-61
2023/06/19 02:41:07;;;;;;;6.80;6.30;;;;;;;;;;5032908;28;20924;-61
2023/06/19 02:43:33;;;;;;;10.07;6.90;;;;;;;;;;5032738;28;20438;-61
2023/06/19 02:46:01;;;;;;;8.03;6.90;;;;;;;;;;5032817;28;21090;-61
2023/06/19 02:48:28;;;;;;;7.83;7.13;;;;;;;;;;5032774;28;20436;-61
2023/06/19 02:50:54;;;;;;;8.53;6.80;;;;;;;;;;5032688;28;20434;-61
2023/06/19 02:53:20;;;;;;;7.30;6.80;;;;;;;;;;5032702;28;20496;-60
2023/06/19 02:55:46;;;;;;;9.23;7.13;;;;;;;;;;5032704;28;20850;-61
2023/06/19 02:58:12;;;;;;;8.33;7.60;;;;;;;;;;5032601;28;20442;-61
2023/06/19 03:00:38;;;;;;;10.83;8.07;;;;;;;;;;5032436;28;20436;-61
2023/06/19 03:03:04;;;;;;;8.80;8.00;;;;;;;;;;5032544;28;20416;-61
2023/06/19 03:05:31;;;;;;;8.37;7.77;;;;;;;;;;5032680;28;20953;-61
2023/06/19 03:07:57;;;;;;;9.53;7.30;;;;;;;;;;5032587;28;20428;-60
2023/06/19 03:10:23;;;;;;;8.70;7.80;;;;;;;;;;5032513;28;20442;-60
2023/06/19 03:12:49;;;;;;;8.60;7.10;;;;;;;;;;5032451;28;20520;-60
2023/06/19 03:15:17;;;;;;;8.00;7.27;;;;;;;;;;5032445;28;20409;-61
2023/06/19 03:17:43;;;;;;;7.10;6.60;;;;;;;;;;5032540;28;20408;-60
2023/06/19 03:20:11;;;;;;;8.63;6.40;;;;;;;;;;5032263;28;20562;-60
2023/06/19 03:22:38;;;;;;;7.23;6.60;;;;;;;;;;5031929;28;20421;-61
2023/06/19 03:25:06;;;;;;;7.40;6.70;;;;;;;;;;5032306;28;20879;-61
2023/06/19 03:27:34;;;;;;;8.10;7.40;;;;;;;;;;5031023;28;20425;-61
2023/06/19 03:30:00;;;;;;;8.20;7.40;;;;;;;;;;5032392;28;20875;-60
2023/06/19 03:32:27;;;;;;;8.40;6.50;;;;;;;;;;5032381;28;20427;-61
2023/06/19 03:34:52;;;;;;;9.80;7.50;;;;;;;;;;5032396;28;20415;-61
2023/06/19 03:37:21;;;;;;;7.40;6.80;;;;;;;;;;5032160;28;20446;-60
2023/06/19 03:39:47;;;;;;;8.23;7.43;;;;;;;;;;5032163;28;20474;-61
2023/06/19 03:42:13;;;;;;;9.87;7.13;;;;;;;;;;5032363;28;20408;-60
2023/06/19 03:44:40;;;;;;;9.50;7.30;;;;;;;;;;5032230;28;20973;-60
2023/06/19 03:47:08;;;;;;;10.20;5.90;;;;;;;;;;5030727;28;20443;-60
2023/06/19 03:49:34;;;;;;;7.27;6.63;;;;;;;;;;5030965;28;20438;-61
2023/06/19 03:52:00;;;;;;;7.37;6.30;;;;;;;;;;5032379;28;20465;-60
2023/06/19 03:54:26;;;;;;;7.83;7.07;;;;;;;;;;5032080;28;20439;-61
2023/06/19 03:56:53;;;;;;;7.73;7.00;;;;;;;;;;5032171;28;20423;-61
2023/06/19 03:59:21;;;;;;;8.37;7.43;;;;;;;;;;5031946;28;20466;-61
2023/06/19 04:01:47;;;;;;;7.87;7.27;;;;;;;;;;5032063;28;20460;-61
2023/06/19 04:04:13;;;;;;;8.17;7.33;;;;;;;;;;5032048;28;20440;-61
2023/06/19 04:06:41;;;;;;;10.30;8.87;;;;;;;;;;5032105;28;20410;-61
2023/06/19 04:09:07;;;;;;;8.40;7.90;;;;;;;;;;5032058;28;20490;-61
2023/06/19 04:11:33;;;;;;;9.00;8.30;;;;;;;;;;5032382;28;20434;-60
2023/06/19 04:14:02;;;;;;;9.97;9.07;;;;;;;;;;5032032;28;20419;-61
2023/06/19 04:16:28;;;;;;;8.30;7.60;;;;;;;;;;5032214;28;20414;-60
2023/06/19 04:18:54;;;;;;;12.13;9.23;;;;;;;;;;5031773;28;20893;-61
2023/06/19 04:21:20;;;;;;;10.03;8.40;;;;;;;;;;5031869;28;20503;-61
2023/06/19 04:23:46;;;;;;;9.70;8.90;;;;;;;;;;5031806;28;20499;-61
2023/06/19 04:26:14;;;;;;;9.17;8.47;;;;;;;;;;5031879;28;20499;-61
2023/06/19 04:28:41;;;;;;;12.30;8.20;;;;;;;;;;5031855;28;20442;-60
2023/06/19 04:31:07;;;;;;;9.90;8.07;;;;;;;;;;5030752;28;20511;-62
2023/06/19 04:33:36;;;;;;;9.73;8.80;;;;;;;;;;5031795;28;20505;-61
2023/06/19 04:36:02;;;;;;;8.23;7.83;;;;;;;;;;5034787;28;20458;-61
2023/06/19 04:38:28;;;;;;;8.57;7.97;;;;;;;;;;5035081;28;20922;-61
2023/06/19 04:40:54;;;;;;;7.90;7.40;;;;;;;;;;5035261;28;20393;-61
2023/06/19 04:43:20;;;;;;;8.77;8.00;;;;;;;;;;5035004;28;20610;-61
2023/06/19 04:45:46;;;;;;;8.27;7.70;;;;;;;;;;5033940;28;20506;-61
2023/06/19 04:48:12;;;;;;;8.37;7.73;;;;;;;;;;5034993;28;20424;-61
2023/06/19 04:50:38;;;;;;;10.10;8.23;;;;;;;;;;5034956;28;20423;-61
2023/06/19 04:53:04;;;;;;;100.03;63.10;;;;;;;;;;5035086;28;20417;-61
2023/06/19 04:55:30;;;;;;;12.57;9.90;;;;;;;;;;5034797;28;20425;-61
2023/06/19 04:57:56;;;;;;;9.90;9.00;;;;;;;;;;5034926;28;20478;-61
2023/06/19 05:00:23;;;;;;;11.33;8.80;;;;;;;;;;5034699;28;20480;-61
2023/06/19 05:02:49;;;;;;;9.17;8.57;;;;;;;;;;5033823;28;20862;-61
2023/06/19 05:05:15;;;;;;;10.63;9.10;;;;;;;;;;5034996;28;20401;-61
2023/06/19 05:07:42;;;;;;;9.63;8.80;;;;;;;;;;5034693;28;20447;-61
2023/06/19 05:10:08;;;;;;;9.47;8.50;;;;;;;;;;5034818;28;20924;-61
2023/06/19 05:12:37;;;;;;;9.30;8.60;;;;;;;;;;5034593;28;20425;-61
2023/06/19 05:15:03;;;;;;;9.70;9.00;;;;;;;;;;5034594;28;20472;-61
2023/06/19 05:17:29;;;;;;;10.07;9.17;;;;;;;;;;5034619;28;20779;-61
2023/06/19 05:19:55;;;;;;;9.60;8.70;;;;;;;;;;5034600;28;20472;-61
2023/06/19 05:22:23;;;;;;;10.27;8.83;;;;;;;;;;5034610;28;20418;-61
2023/06/19 05:24:49;;;;;;;34.90;27.47;;;;;;;;;;5034728;28;20491;-62
2023/06/19 05:27:15;;;;;;;53.53;35.43;;;;;;;;;;5034945;28;20408;-61
2023/06/19 05:29:44;;;;;;;26.37;20.90;;;;;;;;;;5033287;28;20545;-62
2023/06/19 05:32:10;;;;;;;73.63;46.83;;;;;;;;;;5034881;28;20915;-62
2023/06/19 05:34:36;;;;;;;12.37;11.03;;;;;;;;;;5034484;28;20441;-62
2023/06/19 05:37:05;;;;;;;20.30;17.27;;;;;;;;;;5034564;28;20429;-61
2023/06/19 05:39:30;;;;;;;31.23;21.97;;;;;;;;;;5034294;28;20972;-61
2023/06/19 05:41:57;;;;;;;10.07;9.03;;;;;;;;;;5034514;28;20404;-61
2023/06/19 05:44:23;;;;;;;10.00;9.30;;;;;;;;;;5034182;28;20435;-61
2023/06/19 05:46:49;;;;;;;11.70;10.60;;;;;;;;;;5033859;28;20425;-61
2023/06/19 05:49:15;;;;;;;13.00;9.80;;;;;;;;;;5034072;28;20434;-61
2023/06/19 05:51:41;;;;;;;12.77;8.93;;;;;;;;;;5034055;28;20412;-61
2023/06/19 05:54:07;;;;;;;11.43;9.33;;;;;;;;;;5034256;28;20466;-61
2023/06/19 05:56:36;;;;;;;11.47;10.10;;;;;;;;;;5033939;28;20416;-61
2023/06/19 05:59:02;;;;;;;10.67;9.63;;;;;;;;;;5033623;28;20456;-61
2023/06/19 06:01:29;;;;;;;11.20;10.20;;;;;;;;;;5033348;28;20444;-61
2023/06/19 06:03:55;;;;;;;12.20;11.10;;;;;;;;;;5033718;28;20413;-61
2023/06/19 06:06:21;;;;;;;11.37;10.43;;;;;;;;;;5033551;28;20416;-62
2023/06/19 06:08:51;;;;;;;10.30;9.23;;;;;;;;;;5033387;28;20425;-61
2023/06/19 06:11:17;;;;;;;10.80;9.83;;;;;;;;;;5033646;28;20414;-61
2023/06/19 06:13:43;;;;;;;10.60;9.77;;;;;;;;;;5033424;28;20516;-61
2023/06/19 06:16:09;;;;;;;9.30;8.47;;;;;;;;;;5033501;28;20491;-61
2023/06/19 06:18:35;;;;;;;9.50;8.70;;;;;;;;;;5033363;28;20464;-61
2023/06/19 06:21:01;;;;;;;9.63;8.87;;;;;;;;;;5033241;28;20443;-61
2023/06/19 06:23:29;;;;;;;9.10;8.40;;;;;;;;;;5033506;28;20402;-61
2023/06/19 06:26:01;;;;;;;9.33;8.40;;;;;;;;;;5033095;28;20426;-61
2023/06/19 06:28:27;;;;;;;9.03;8.33;;;;;;;;;;5033249;28;20505;-61
2023/06/19 06:30:53;;;;;;;10.03;9.33;;;;;;;;;;5031792;28;20468;-61
2023/06/19 06:33:21;;;;;;;9.77;8.77;;;;;;;;;;5031699;28;20442;-61
2023/06/19 06:35:47;;;;;;;14.03;8.47;;;;;;;;;;5032985;28;20447;-61
2023/06/19 06:38:13;;;;;;;9.87;9.03;;;;;;;;;;5032953;28;20493;-61
2023/06/19 06:40:41;;;;;;;9.40;8.80;;;;;;;;;;5031542;28;20580;-61
2023/06/19 06:43:07;;;;;;;9.60;8.80;;;;;;;;;;5033091;28;20427;-61
2023/06/19 06:45:37;;;;;;;9.47;8.57;;;;;;;;;;5032860;28;20458;-61
2023/06/19 06:48:03;;;;;;;9.53;8.70;;;;;;;;;;5032935;28;20501;-61
2023/06/19 06:50:32;;;;;;;8.90;8.30;;;;;;;;;;5032874;28;20454;-61
2023/06/19 06:53:00;;;;;;;8.53;8.03;;;;;;;;;;5031353;28;21046;-61
2023/06/19 06:55:26;;;;;;;8.33;7.63;;;;;;;;;;5032765;28;20441;-61
2023/06/19 06:57:52;;;;;;;8.10;7.60;;;;;;;;;;5030724;28;20446;-61
2023/06/19 07:00:18;;;;;;;8.13;7.70;;;;;;;;;;5032493;28;20866;-61
2023/06/19 07:02:50;;;;;;;10.47;8.27;;;;;;;;;;5032700;28;20413;-61
2023/06/19 07:05:16;;;;;;;8.90;8.23;;;;;;;;;;5032568;28;20830;-61
2023/06/19 07:07:42;;;;;;;9.47;7.60;;;;;;;;;;5032715;28;20484;-61
2023/06/19 07:10:10;;;;;;;8.30;7.80;;;;;;;;;;5032503;28;20916;-61
2023/06/19 07:12:47;;;;;;;8.63;8.07;;;;;;;;;;5032852;28;20409;-61
2023/06/19 07:15:13;;;;;;;8.23;7.83;;;;;;;;;;5032523;28;20922;-61
2023/06/19 07:17:39;;;;;;;8.20;7.67;;;;;;;;;;5031323;28;20433;-61
2023/06/19 07:20:06;;;;;;;7.90;7.40;;;;;;;;;;5032428;28;20703;-61
2023/06/19 07:22:32;;;;;;;8.10;7.47;;;;;;;;;;5032525;28;20581;-61
2023/06/19 07:24:58;;;;;;;7.97;7.53;;;;;;;;;;5032611;28;20467;-61
2023/06/19 07:27:27;;;;;;;9.83;8.03;;;;;;;;;;5032484;28;20421;-61
2023/06/19 07:29:55;;;;;;;8.43;7.57;;;;;;;;;;5032336;28;20442;-61
2023/06/19 07:32:21;;;;;;;7.40;6.80;;;;;;;;;;5032476;28;20499;-61
2023/06/19 07:34:47;;;;;;;8.33;7.77;;;;;;;;;;5032530;28;20411;-61
2023/06/19 07:37:22;;;;;;;7.50;6.90;;;;;;;;;;5032621;28;20416;-61
2023/06/19 07:39:49;;;;;;;8.13;7.53;;;;;;;;;;5032339;28;20469;-61
2023/06/19 07:42:15;;;;;;;38.83;24.57;;;;;;;;;;5032606;28;20442;-60
2023/06/19 07:44:42;;;;;;;24.23;14.80;;;;;;;;;;5032579;28;20419;-61
2023/06/19 07:47:08;;;;;;;31.00;20.10;;;;;;;;;;5032525;28;20779;-61
2023/06/19 07:49:35;;;;;;;14.80;12.37;;;;;;;;;;5032472;28;20431;-61
2023/06/19 07:52:01;;;;;;;17.17;14.30;;;;;;;;;;5032153;28;20812;-61
2023/06/19 07:54:29;;;;;;;27.43;20.13;;;;;;;;;;5032176;28;20466;-61
2023/06/19 07:56:57;;;;;;;7.80;7.30;;;;;;;;;;5032231;28;20446;-61
2023/06/19 07:59:23;;;;;;;8.07;7.37;;;;;;;;;;5030875;28;20470;-61
2023/06/19 08:01:49;;;;;;;7.77;7.30;;;;;;;;;;5032143;28;20424;-61
2023/06/19 08:04:15;;;;;;;7.57;6.97;;;;;;;;;;5030839;28;20547;-61
2023/06/19 08:06:41;;;;;;;7.50;7.10;;;;;;;;;;5032043;28;20796;-61
2023/06/19 08:09:07;;;;;;;7.00;6.60;;;;;;;;;;5033760;28;20461;-61
2023/06/19 08:11:33;;;;;;;7.13;6.47;;;;;;;;;;5035797;28;20950;-60
2023/06/19 08:13:59;;;;;;;7.17;6.63;;;;;;;;;;5035644;28;20429;-60
2023/06/19 08:16:26;;;;;;;6.87;6.47;;;;;;;;;;5035658;28;20435;-60
2023/06/19 08:18:52;;;;;;;6.60;6.30;;;;;;;;;;5035715;28;20460;-61
2023/06/19 08:21:20;;;;;;;6.63;6.33;;;;;;;;;;5035524;28;20412;-61
2023/06/19 08:23:46;;;;;;;6.93;6.30;;;;;;;;;;5035758;28;20515;-60
2023/06/19 08:26:12;;;;;;;6.10;5.70;;;;;;;;;;5035399;28;20465;-60
2023/06/19 08:28:38;;;;;;;8.93;6.20;;;;;;;;;;5035705;28;20404;-60
2023/06/19 08:31:04;;;;;;;7.13;6.50;;;;;;;;;;5035675;28;20430;-60
2023/06/19 08:33:33;;;;;;;6.20;5.90;;;;;;;;;;5035295;28;20411;-61
2023/06/19 08:36:01;;;;;;;6.90;6.30;;;;;;;;;;5034039;28;20483;-61
2023/06/19 08:38:27;;;;;;;7.03;6.40;;;;;;;;;;5034018;28;20409;-61
2023/06/19 08:40:55;;;;;;;6.47;6.17;;;;;;;;;;5035338;28;20453;-61
2023/06/19 08:43:26;;;;;;;6.50;6.20;;;;;;;;;;5035341;28;20477;-60
2023/06/19 08:46:13;;;;;;;7.30;6.10;;;;;;;;;;5035096;28;20446;-60
2023/06/19 08:48:39;;;;;;;6.77;6.07;;;;;;;;;;5035294;28;20443;-60
2023/06/19 08:51:05;;;;;;;6.07;5.77;;;;;;;;;;5035153;28;20814;-60
2023/06/19 08:53:37;;;;;;;8.73;6.47;;;;;;;;;;5035043;28;20560;-60
2023/06/19 08:56:04;;;;;;;5.77;5.57;;;;;;;;;;5035022;28;20453;-61
2023/06/19 08:58:30;;;;;;;5.03;4.83;;;;;;;;;;5034940;28;20426;-60
2023/06/19 09:01:00;;;;;;;10.47;5.40;;;;;;;;;;5034921;28;20432;-61
2023/06/19 09:03:26;;;;;;;7.00;4.73;;;;;;;;;;5034896;28;20434;-60
2023/06/19 09:05:52;;;;;;;6.40;4.83;;;;;;;;;;5034908;28;20434;-61
2023/06/19 09:08:21;;;;;;;5.47;5.17;;;;;;;;;;5034914;28;20411;-60
2023/06/19 09:11:00;;;;;;;6.20;5.60;;;;;;;;;;5034764;28;20512;-60
2023/06/19 09:13:28;;;;;;;6.27;5.90;;;;;;;;;;5034847;28;20407;-60
2023/06/19 09:16:02;;;;;;;5.60;5.40;;;;;;;;;;5034658;28;20443;-60
2023/06/19 09:18:29;;;;;;;5.40;5.10;;;;;;;;;;5034719;28;20494;-61
2023/06/19 09:21:00;;;;;;;6.07;5.87;;;;;;;;;;5033895;28;20442;-60
2023/06/19 09:23:26;;;;;;;4.93;4.73;;;;;;;;;;5034508;28;20407;-60
2023/06/19 09:25:58;;;;;;;6.10;5.67;;;;;;;;;;5034494;28;20787;-60
2023/06/19 09:28:33;;;;;;;4.77;4.47;;;;;;;;;;5032852;28;20431;-61
2023/06/19 09:31:00;;;;;;;4.37;4.00;;;;;;;;;;5034441;28;20807;-60
2023/06/19 09:33:26;;;;;;;4.70;4.40;;;;;;;;;;5034344;28;20407;-60
2023/06/19 09:35:54;;;;;;;4.10;3.90;;;;;;;;;;5034296;28;20404;-61
2023/06/19 09:38:21;;;;;;;4.67;4.40;;;;;;;;;;5034250;28;20938;-60
2023/06/19 09:40:48;;;;;;;11.37;3.83;;;;;;;;;;5034131;28;20491;-61
2023/06/19 09:43:19;;;;;;;3.90;3.80;;;;;;;;;;5034254;28;20401;-60
2023/06/19 09:45:49;;;;;;;3.40;3.30;;;;;;;;;;5034083;28;20739;-61
2023/06/19 09:48:19;;;;;;;4.87;3.63;;;;;;;;;;5034170;28;20494;-60
2023/06/19 09:50:46;;;;;;;4.67;4.47;;;;;;;;;;5033889;28;20411;-60
2023/06/19 09:53:12;;;;;;;3.80;3.67;;;;;;;;;;5033963;28;20895;-61
2023/06/19 09:55:38;;;;;;;4.63;3.90;;;;;;;;;;5033710;28;20459;-61
2023/06/19 09:58:05;;;;;;;3.90;3.77;;;;;;;;;;5033995;28;20407;-60
2023/06/19 10:00:32;;;;;;;5.00;4.70;;;;;;;;;;5033919;28;20521;-61
2023/06/19 10:03:00;;;;;;;3.77;3.67;;;;;;;;;;5033703;28;20436;-61
2023/06/19 10:05:30;;;;;;;4.40;4.20;;;;;;;;;;5033568;28;20412;-61
2023/06/19 10:07:59;;;;;;;4.63;4.33;;;;;;;;;;5033667;28;20531;-60
2023/06/19 10:10:27;;;;;;;4.80;4.33;;;;;;;;;;5033640;28;20420;-60
2023/06/19 10:12:55;;;;;;;4.43;4.20;;;;;;;;;;5033491;28;20428;-60
2023/06/19 10:15:25;;;;;;;4.53;4.40;;;;;;;;;;5033429;28;20785;-61
2023/06/19 10:18:02;;;;;;;4.23;4.00;;;;;;;;;;5033360;28;20581;-61
2023/06/19 10:20:31;;;;;;;9.33;8.40;;;;;;;;;;5033284;28;20934;-61
2023/06/19 10:23:01;;;;;;;4.00;3.90;;;;;;;;;;5033584;28;20392;-61
2023/06/19 10:25:33;;;;;;;6.70;4.13;;;;;;;;;;5033366;28;20503;-61
2023/06/19 10:28:00;;;;;;;5.10;4.80;;;;;;;;;;5033321;28;20412;-61
2023/06/19 10:30:26;;;;;;;4.30;4.00;;;;;;;;;;5033415;28;20459;-60
2023/06/19 10:32:53;;;;;;;4.53;4.17;;;;;;;;;;5032387;28;20424;-61
2023/06/19 10:35:21;;;;;;;3.90;3.70;;;;;;;;;;5033365;28;20426;-60
2023/06/19 10:37:50;;;;;;;3.80;3.70;;;;;;;;;;5033129;28;20428;-61
2023/06/19 10:40:17;;;;;;;3.53;3.33;;;;;;;;;;5033159;28;20517;-61
2023/06/19 10:42:43;;;;;;;4.00;3.87;;;;;;;;;;5032966;28;20908;-61
2023/06/19 10:45:12;;;;;;;4.00;3.90;;;;;;;;;;5033137;28;20404;-61
2023/06/19 10:47:39;;;;;;;4.43;4.20;;;;;;;;;;5032811;28;20458;-60
2023/06/19 10:50:05;;;;;;;8.53;4.40;;;;;;;;;;5033101;28;20776;-60
2023/06/19 10:52:31;;;;;;;3.93;3.67;;;;;;;;;;5032832;28;20443;-61
2023/06/19 10:55:00;;;;;;;5.20;4.77;;;;;;;;;;5032848;28;20416;-60
2023/06/19 10:57:32;;;;;;;4.17;3.90;;;;;;;;;;5032995;28;20468;-60
2023/06/19 10:59:58;;;;;;;8.27;4.30;;;;;;;;;;5032900;28;20822;-60
2023/06/19 11:02:26;;;;;;;4.30;4.00;;;;;;;;;;5032848;28;20927;-61
2023/06/19 11:04:53;;;;;;;3.80;3.43;;;;;;;;;;5032590;28;20408;-61
2023/06/19 11:07:19;;;;;;;7.77;4.67;;;;;;;;;;5032569;28;20514;-61
2023/06/19 11:09:45;;;;;;;4.10;3.90;;;;;;;;;;5032652;28;20955;-61
2023/06/19 11:12:12;;;;;;;7.40;4.00;;;;;;;;;;5032574;28;20440;-61
2023/06/19 11:14:39;;;;;;;3.50;3.50;;;;;;;;;;5032615;28;20420;-61
2023/06/19 11:17:09;;;;;;;4.20;3.93;;;;;;;;;;5032364;28;20467;-60
2023/06/19 11:19:36;;;;;;;4.60;4.30;;;;;;;;;;5032477;28;20474;-61
2023/06/19 11:22:02;;;;;;;3.93;3.80;;;;;;;;;;5032471;28;20423;-61
2023/06/19 11:24:28;;;;;;;4.60;4.13;;;;;;;;;;5032575;28;20400;-60
2023/06/19 11:26:56;;;;;;;4.40;4.20;;;;;;;;;;5031032;28;20439;-60
2023/06/19 11:29:26;;;;;;;6.63;4.20;;;;;;;;;;5032436;28;20436;-61
2023/06/19 11:31:54;;;;;;;4.37;4.17;;;;;;;;;;5032288;28;20422;-60
2023/06/19 11:34:20;;;;;;;4.50;4.27;;;;;;;;;;5032482;28;20416;-60
2023/06/19 11:36:46;;;;;;;4.03;3.83;;;;;;;;;;5032350;28;20434;-60
2023/06/19 11:39:13;;;;;;;4.10;3.80;;;;;;;;;;5032351;28;20539;-60
2023/06/19 11:41:39;;;;;;;4.27;4.03;;;;;;;;;;5032237;28;20416;-60
2023/06/19 11:44:06;;;;;;;3.90;3.70;;;;;;;;;;5033893;28;20457;-60
2023/06/19 11:46:34;;;;;;;4.00;3.90;;;;;;;;;;5034965;28;20948;-60
2023/06/19 11:49:17;;;;;;;4.77;4.23;;;;;;;;;;5036292;28;20428;-60
2023/06/19 11:51:44;;;;;;;4.47;4.27;;;;;;;;;;5036265;28;20879;-60
2023/06/19 11:54:10;;;;;;;3.97;3.70;;;;;;;;;;5036168;28;20477;-61
2023/06/19 11:56:37;;;;;;;4.20;4.00;;;;;;;;;;5036180;28;20418;-61
2023/06/19 11:59:03;;;;;;;4.47;4.23;;;;;;;;;;5036034;28;20455;-60
2023/06/19 12:01:29;;;;;;;5.03;4.37;;;;;;;;;;5034382;28;20966;-60
2023/06/19 12:03:58;;;;;;;4.00;3.90;;;;;;;;;;5035949;28;20412;-61
2023/06/19 12:06:24;;;;;;;4.17;3.97;;;;;;;;;;5036160;28;20879;-61
2023/06/19 12:08:50;;;;;;;3.93;3.83;;;;;;;;;;5035724;28;20838;-60
2023/06/19 12:11:16;;;;;;;5.07;4.27;;;;;;;;;;5035862;28;20416;-61
2023/06/19 12:13:42;;;;;;;4.50;4.30;;;;;;;;;;5035804;28;20533;-61
2023/06/19 12:16:08;;;;;;;3.80;3.60;;;;;;;;;;5035832;28;20444;-61
2023/06/19 12:18:34;;;;;;;4.90;4.50;;;;;;;;;;5036035;28;20409;-61
2023/06/19 12:21:05;;;;;;;4.17;3.97;;;;;;;;;;5035738;28;20481;-61
2023/06/19 12:23:33;;;;;;;4.60;4.20;;;;;;;;;;5035760;28;20431;-61
2023/06/19 12:26:00;;;;;;;4.40;4.00;;;;;;;;;;5035686;28;20458;-61
2023/06/19 12:28:26;;;;;;;6.93;5.40;;;;;;;;;;5035655;28;20996;-60
2023/06/19 12:30:53;;;;;;;4.83;4.50;;;;;;;;;;5035606;28;20503;-60
2023/06/19 12:33:23;;;;;;;4.60;3.87;;;;;;;;;;5034271;28;20447;-61
2023/06/19 12:35:49;;;;;;;9.93;9.00;;;;;;;;;;5035508;28;20415;-61
2023/06/19 12:38:15;;;;;;;11.60;9.27;;;;;;;;;;5035331;28;20438;-61
2023/06/19 12:40:42;;;;;;;4.03;3.80;;;;;;;;;;5035382;28;20467;-61
2023/06/19 12:43:08;;;;;;;4.67;4.47;;;;;;;;;;5035192;28;20436;-61
2023/06/19 12:45:34;;;;;;;4.53;4.23;;;;;;;;;;5035320;28;20437;-61
2023/06/19 12:48:00;;;;;;;4.20;4.00;;;;;;;;;;5035218;28;20911;-60
2023/06/19 12:50:28;;;;;;;4.97;4.60;;;;;;;;;;5035268;28;20428;-61
2023/06/19 12:52:54;;;;;;;5.10;3.77;;;;;;;;;;5035171;28;20447;-61
2023/06/19 12:55:22;;;;;;;4.50;4.13;;;;;;;;;;5034002;28;20789;-61
2023/06/19 12:57:48;;;;;;;4.33;4.23;;;;;;;;;;5035060;28;20248;-60
2023/06/19 13:00:14;;;;;;;3.87;3.77;;;;;;;;;;5034826;28;20507;-61
2023/06/19 13:02:42;;;;;;;4.43;4.30;;;;;;;;;;5034880;28;20946;-61
2023/06/19 13:05:08;;;;;;;4.13;4.03;;;;;;;;;;5034853;28;20447;-61
2023/06/19 13:07:34;;;;;;;4.23;4.13;;;;;;;;;;5034855;28;20444;-61
2023/06/19 13:10:00;;;;;;;5.07;4.67;;;;;;;;;;5034776;28;20430;-61
2023/06/19 13:12:26;;;;;;;4.60;4.30;;;;;;;;;;5034740;28;20419;-61
2023/06/19 13:14:52;;;;;;;4.37;4.17;;;;;;;;;;5034850;28;20819;-61
2023/06/19 13:17:19;;;;;;;5.17;4.90;;;;;;;;;;5034565;28;20419;-61
2023/06/19 13:19:47;;;;;;;5.20;4.83;;;;;;;;;;5034609;28;20467;-61
2023/06/19 13:22:15;;;;;;;4.40;4.30;;;;;;;;;;5034631;28;20481;-60
2023/06/19 13:24:44;;;;;;;4.60;4.23;;;;;;;;;;5034661;28;20895;-60
2023/06/19 13:27:14;;;;;;;5.23;4.83;;;;;;;;;;5033325;28;20515;-60
2023/06/19 13:29:40;;;;;;;5.50;4.60;;;;;;;;;;5033362;28;20443;-61
2023/06/19 13:32:09;;;;;;;4.43;4.33;;;;;;;;;;5034489;28;20424;-60
2023/06/19 13:34:37;;;;;;;5.60;4.17;;;;;;;;;;5034636;28;20423;-60
2023/06/19 13:37:03;;;;;;;5.63;4.50;;;;;;;;;;5034304;28;20420;-60
2023/06/19 13:39:34;;;;;;;6.63;4.60;;;;;;;;;;5034108;28;20566;-60
2023/06/19 13:42:01;;;;;;;4.97;4.50;;;;;;;;;;5034237;28;20416;-60
2023/06/19 13:44:27;;;;;;;4.27;4.17;;;;;;;;;;5034227;28;20404;-61
2023/06/19 13:46:54;;;;;;;4.60;4.40;;;;;;;;;;5034368;28;20495;-60
2023/06/19 13:49:22;;;;;;;4.43;4.10;;;;;;;;;;5034171;28;20416;-60
2023/06/19 13:51:50;;;;;;;4.90;4.33;;;;;;;;;;5034156;28;20503;-61
2023/06/19 13:54:17;;;;;;;5.07;4.67;;;;;;;;;;5033848;28;20451;-60
2023/06/19 13:56:42;;;;;;;5.00;4.60;;;;;;;;;;5032613;28;20935;-61
2023/06/19 13:59:09;;;;;;;4.63;4.50;;;;;;;;;;5033919;28;20463;-61
2023/06/19 14:01:35;;;;;;;7.07;4.40;;;;;;;;;;5034171;28;20420;-60
2023/06/19 14:04:00;;;;;;;4.33;4.00;;;;;;;;;;5033763;28;20443;-61
2023/06/19 14:06:26;;;;;;;4.53;4.13;;;;;;;;;;5033733;28;20879;-60
2023/06/19 14:08:55;;;;;;;5.40;5.00;;;;;;;;;;5033674;28;20432;-60
2023/06/19 14:11:24;;;;;;;4.57;4.37;;;;;;;;;;5033915;28;20539;-61
2023/06/19 14:13:50;;;;;;;4.40;4.30;;;;;;;;;;5033598;28;20427;-60
2023/06/19 14:16:16;;;;;;;4.40;4.30;;;;;;;;;;5033563;28;20404;-61
2023/06/19 14:18:44;;;;;;;5.00;4.70;;;;;;;;;;5033472;28;20794;-61
2023/06/19 14:21:10;;;;;;;4.73;4.43;;;;;;;;;;5033533;28;20482;-61
2023/06/19 14:23:43;;;;;;;4.63;4.47;;;;;;;;;;5033304;28;20942;-61
2023/06/19 14:26:09;;;;;;;4.57;4.47;;;;;;;;;;5033515;28;20879;-61
2023/06/19 14:28:35;;;;;;;4.50;4.20;;;;;;;;;;5033252;28;20443;-61
2023/06/19 14:31:01;;;;;;;4.90;4.60;;;;;;;;;;5033372;28;20454;-61
2023/06/19 14:33:27;;;;;;;4.73;4.53;;;;;;;;;;5033187;28;20866;-61
2023/06/19 14:35:53;;;;;;;4.87;4.67;;;;;;;;;;5033206;28;20448;-61
2023/06/19 14:38:19;;;;;;;4.50;4.20;;;;;;;;;;5033217;28;20450;-61
2023/06/19 14:40:45;;;;;;;4.10;4.10;;;;;;;;;;5032901;28;20467;-61